EGWUEGMD

Guest
Details From EGWU - RAF Northolt
To EGMD - Lydd
Flight Number -
Tags generated
Created
Modified
Stats Distance 62 nm / 116 km
Max Altitude 5,000 ft / 1,524 m
Waypoints 3
Social Downloads 1
Likes 0
Share VATSIM

Download

Looking for another format? Having issues loading an existing format? Contact us
Advertisement - Login to hide

Notes

Basic altitude profile: - Ascent Rate: 2500ft/min - Ascent Speed: 250kts - Cruise Altitude: 5000ft - Cruise Speed: 420kts - Descent Rate: 1500ft/min - Descent Speed: 250kts

Route

EGWU BIG EGMD

ID Type Via Altitude Latitude Longitude Leg Dist Tot Dist Heading (true) Name
O EGWU APT - 0 ft / 0 m 51.55270˚ -0.41959˚ - 0 nm - RAF Northolt
BIG VOR - 5,000 ft / 1,524 m 51.33087˚ 0.03481˚ 21 nm 21 nm 128° / 128° BIGGIN VOR-DME
O EGMD APT - 0 ft / 0 m 50.95617˚ 0.93915˚ 40 nm 62 nm 123° / 124° Lydd

Altitude Profile

Advertisement - Login to hide

EGWU

Details ICAO EGWU (NHT)
Name RAF Northolt
Region United Kingdom
Timezone Europe/London (UTC+1.0)
Stats Elevation 124 ft / 38 m (AMSL)
Location 51.552696° -0.419593°
Runways 1
Magnetic Variation 0.491° W

METAR

EGWU 211250Z 03007KT 9999 FEW044 BKN110 21/10 Q1015 BLU NOSIG

Decode

TAF

TAF EGWU 211054Z 2112/2206 07005KT 9999 FEW045 PROB30 TEMPO 2112/2119 4000 +TSRA BKN040CB

Decode

Departure Runways

ID Width Length Bearing (true) Bearing (mag) Surface Threshold Offset Overrun Length
07 151 ft / 46 m 5,531 ft / 1,686 m 69.62° 70.11° Asphalt 302 ft / 92 m 0 ft / 0 m
25 151 ft / 46 m 5,531 ft / 1,686 m 249.64° 250.13° Asphalt 0 ft / 0 m 0 ft / 0 m

EGMD

Details ICAO EGMD (LYX)
Name Lydd
Region United Kingdom
Timezone Europe/London (UTC+1.0)
Stats Elevation 13 ft / 4 m (AMSL)
Location 50.956171° 0.939147°
Runways 1
Magnetic Variation 0.033° E

METAR

EGMD 211250Z 06011KT CAVOK 21/13 Q1014

Decode

TAF

Not found

Destination Runways

ID Width Length Bearing (true) Bearing (mag) Surface Threshold Offset Overrun Length
03 105 ft / 32 m 4,928 ft / 1,502 m 32.64° 32.61° Asphalt 0 ft / 0 m 0 ft / 0 m
21 105 ft / 32 m 4,928 ft / 1,502 m 212.65° 212.62° Asphalt 112 ft / 34 m 0 ft / 0 m

Approach Navaids

Runway Type Ident Frequency Range Bearing (true) Bearing (mag) Slope Elevation
21 Localiser ILDY 108.15 MHz 18 nm / 33 km 203.16° 203.13° - 13 ft / 4 m (AMSL)
21 Glidescope ILDY 108.15 MHz 10 nm / 19 km 212.65° 212.62° 3.50° 13 ft / 4 m (AMSL)